Time;durP1;ratioP1;P1;durP2;ratioP2;P2;SDS_P1;SDS_P2;PMS_P1;PMS_P2;Temp;Humidity;BMP_temperature;BMP_pressure;BME280_temperature;BME280_humidity;BME280_pressure;Samples;Min_cycle;Max_cycle;Signal;HPM_P1;HPM_P2
2022/07/15 00:00:31;;;;;;;10.95;5.13;;;17.50;99.90;;;;;;5073184;28;20021;-80
2022/07/15 00:02:58;;;;;;;12.77;5.13;;;17.60;99.90;;;;;;5062730;28;20028;-80
2022/07/15 00:05:25;;;;;;;12.80;5.53;;;17.70;99.90;;;;;;5075292;28;20116;-80
2022/07/15 00:07:51;;;;;;;13.70;5.47;;;17.80;99.90;;;;;;5074798;28;20033;-79
2022/07/15 00:10:21;;;;;;;16.50;6.15;;;17.90;99.90;;;;;;5075005;28;20040;-79
2022/07/15 00:12:48;;;;;;;18.30;5.13;;;17.80;99.90;;;;;;5074584;28;20468;-79
2022/07/15 00:15:14;;;;;;;12.57;6.32;;;17.80;99.90;;;;;;5075267;28;20039;-79
2022/07/15 00:17:41;;;;;;;13.65;5.68;;;17.90;99.90;;;;;;5074856;28;20021;-79
2022/07/15 00:20:09;;;;;;;13.38;5.53;;;17.80;99.90;;;;;;5074862;28;20033;-79
2022/07/15 00:22:36;;;;;;;13.45;5.55;;;17.80;99.90;;;;;;5074812;28;20104;-79
2022/07/15 00:25:02;;;;;;;12.68;5.78;;;17.80;99.90;;;;;;5074888;28;20541;-79
2022/07/15 00:27:28;;;;;;;18.00;5.50;;;17.70;99.90;;;;;;5074388;28;20040;-79
2022/07/15 00:29:54;;;;;;;16.67;5.40;;;17.60;99.90;;;;;;5074974;28;20043;-79
2022/07/15 00:32:20;;;;;;;11.82;5.82;;;17.60;99.90;;;;;;5073350;28;20039;-79
2022/07/15 00:34:46;;;;;;;20.10;6.07;;;17.50;99.90;;;;;;5074554;28;20024;-79
2022/07/15 00:37:11;;;;;;;12.70;6.47;;;17.60;99.90;;;;;;5073263;28;20025;-79
2022/07/15 00:39:37;;;;;;;12.75;5.72;;;17.70;99.90;;;;;;5073187;28;20070;-79
2022/07/15 00:42:04;;;;;;;12.85;5.57;;;17.70;99.90;;;;;;5072972;28;20451;-79
2022/07/15 00:44:30;;;;;;;14.45;5.88;;;17.70;99.90;;;;;;5074422;28;20028;-79
2022/07/15 00:46:56;;;;;;;11.38;5.30;;;17.50;99.90;;;;;;5072961;28;20037;-79
2022/07/15 00:49:22;;;;;;;13.57;6.13;;;17.30;99.90;;;;;;5073079;28;20029;-79
2022/07/15 00:51:51;;;;;;;12.48;6.00;;;17.50;99.90;;;;;;5074216;28;20081;-79
2022/07/15 00:54:22;;;;;;;14.68;5.30;;;17.60;99.90;;;;;;5074034;28;20376;-79
2022/07/15 00:56:55;;;;;;;12.30;5.65;;;17.50;99.90;;;;;;5072625;28;20477;-79
2022/07/15 00:59:28;;;;;;;;;;;17.50;99.90;;;;;;5073301;28;20039;-79
2022/07/15 01:01:56;;;;;;;14.93;5.05;;;17.20;99.90;;;;;;5043174;28;19908;-79
2022/07/15 01:04:24;;;;;;;14.15;4.88;;;17.30;99.90;;;;;;5072993;28;20032;-79
2022/07/15 01:06:50;;;;;;;15.30;3.92;;;17.40;99.90;;;;;;5073962;28;20502;-79
2022/07/15 01:09:16;;;;;;;13.25;3.95;;;17.10;99.90;;;;;;5073353;28;20062;-79
2022/07/15 01:11:41;;;;;;;14.52;3.38;;;16.90;99.90;;;;;;5073662;28;20093;-79
2022/07/15 01:14:08;;;;;;;11.35;3.35;;;16.90;99.90;;;;;;5073803;28;20024;-79
2022/07/15 01:16:34;;;;;;;16.08;3.20;;;17.10;99.90;;;;;;5072800;28;20024;-79
2022/07/15 01:19:00;;;;;;;8.20;2.40;;;17.00;99.90;;;;;;5072203;28;20028;-80
2022/07/15 01:21:33;;;;;;;14.65;2.92;;;16.70;99.90;;;;;;5045961;28;20518;-79
2022/07/15 01:24:00;;;;;;;9.38;2.20;;;16.40;99.90;;;;;;5071976;28;20035;-79
2022/07/15 01:26:37;;;;;;;15.73;3.05;;;16.20;99.90;;;;;;5072568;28;20400;-79
2022/07/15 01:29:03;;;;;;;17.27;2.63;;;16.10;99.90;;;;;;5072338;28;20023;-79
2022/07/15 01:31:29;;;;;;;14.90;2.40;;;15.90;99.90;;;;;;5073702;28;20522;-79
2022/07/15 01:33:56;;;;;;;9.77;2.42;;;16.00;99.90;;;;;;5072140;28;20043;-79
2022/07/15 01:36:23;;;;;;;13.20;3.28;;;16.10;99.90;;;;;;5072022;28;20025;-79
2022/07/15 01:38:54;;;;;;;;;;;16.10;99.90;;;;;;5072260;28;20059;-80
2022/07/15 01:41:22;;;;;;;12.90;2.85;;;16.20;99.90;;;;;;5072017;28;19908;-79
2022/07/15 01:43:49;;;;;;;12.77;2.67;;;16.10;99.90;;;;;;5072154;28;20060;-79
2022/07/15 01:46:15;;;;;;;12.77;2.33;;;16.00;99.90;;;;;;5071847;28;20425;-79
2022/07/15 01:51:46;;;;;;;10.45;2.63;;;16.10;99.90;;;;;;5052427;28;20032;-79
2022/07/15 01:54:12;;;;;;;8.20;3.03;;;15.90;99.90;;;;;;5051312;28;20033;-79
2022/07/15 01:56:39;;;;;;;10.68;2.58;;;15.70;99.90;;;;;;5051696;28;20107;-79
2022/07/15 01:59:05;;;;;;;10.20;2.60;;;15.50;99.90;;;;;;5051628;28;20060;-79
2022/07/15 02:01:32;;;;;;;7.43;2.90;;;15.60;99.90;;;;;;5051946;28;20033;-79
2022/07/15 02:04:03;;;;;;;14.18;3.15;;;15.60;99.90;;;;;;5051631;28;20104;-79
2022/07/15 02:06:29;;;;;;;7.95;3.05;;;15.70;99.90;;;;;;5051870;28;20112;-79
2022/07/15 02:08:56;;;;;;;6.45;2.92;;;15.80;99.90;;;;;;5051099;28;20064;-79
2022/07/15 02:11:23;;;;;;;12.32;2.97;;;15.80;99.90;;;;;;5051418;28;20044;-79
2022/07/15 02:13:49;;;;;;;11.50;3.25;;;15.70;99.90;;;;;;5051526;28;20440;-79
2022/07/15 02:16:16;;;;;;;8.43;2.90;;;15.60;99.90;;;;;;5051239;28;20021;-79
2022/07/15 02:18:42;;;;;;;13.15;3.50;;;15.60;99.90;;;;;;5051558;28;20021;-79
2022/07/15 02:21:08;;;;;;;11.30;3.03;;;15.60;99.90;;;;;;5050575;28;20075;-80
2022/07/15 02:23:34;;;;;;;9.27;3.00;;;15.40;99.90;;;;;;5051264;28;20481;-79
2022/07/15 02:26:00;;;;;;;14.73;3.88;;;15.40;99.90;;;;;;5051100;28;20039;-79
2022/07/15 02:28:26;;;;;;;14.88;2.90;;;15.20;99.90;;;;;;5051382;28;20056;-79
2022/07/15 02:30:53;;;;;;;13.00;2.88;;;15.20;99.90;;;;;;5051352;28;20478;-79
2022/07/15 02:33:19;;;;;;;12.95;3.35;;;15.00;99.90;;;;;;5051269;28;20025;-79
2022/07/15 02:35:44;;;;;;;7.93;3.50;;;14.90;99.90;;;;;;5052509;28;20470;-79
2022/07/15 02:38:11;;;;;;;13.93;3.75;;;14.80;99.90;;;;;;5050870;28;20040;-79
2022/07/15 02:40:37;;;;;;;8.85;3.13;;;14.90;99.90;;;;;;5051037;28;20433;-79
2022/07/15 02:43:04;;;;;;;13.98;3.35;;;14.80;99.90;;;;;;5052492;28;20037;-79
2022/07/15 02:45:35;;;;;;;16.38;3.72;;;14.80;99.90;;;;;;5050899;28;20017;-79
2022/07/15 02:48:05;;;;;;;14.48;3.75;;;14.90;99.90;;;;;;5051357;28;20061;-79
2022/07/15 02:50:35;;;;;;;15.80;3.35;;;15.00;99.90;;;;;;5051017;28;20052;-79
2022/07/15 02:53:03;;;;;;;16.65;3.42;;;15.10;99.90;;;;;;5050621;28;20029;-80
2022/07/15 02:55:29;;;;;;;17.88;3.95;;;15.00;99.90;;;;;;5051023;28;20018;-79
2022/07/15 02:57:55;;;;;;;14.82;4.47;;;15.00;99.90;;;;;;5052457;28;20079;-79
2022/07/15 03:00:22;;;;;;;9.88;3.47;;;15.00;99.90;;;;;;5050789;28;20029;-80
2022/07/15 03:02:54;;;;;;;10.57;3.88;;;15.10;99.90;;;;;;5051359;28;20029;-80
2022/07/15 03:05:20;;;;;;;16.25;3.92;;;14.90;99.90;;;;;;5052213;28;20104;-80
2022/07/15 03:07:46;;;;;;;9.73;3.42;;;14.80;99.90;;;;;;5050484;28;20461;-80
2022/07/15 03:10:16;;;;;;;17.65;3.95;;;14.80;99.90;;;;;;5051279;28;20032;-79
2022/07/15 03:12:43;;;;;;;15.75;3.78;;;15.20;99.90;;;;;;5050909;28;20032;-79
2022/07/15 03:15:11;;;;;;;10.13;3.78;;;15.10;99.90;;;;;;5050910;28;20452;-79
2022/07/15 03:17:39;;;;;;;18.58;4.45;;;15.00;99.90;;;;;;5050564;28;20048;-79
2022/07/15 03:20:10;;;;;;;13.60;3.17;;;14.90;99.90;;;;;;5050766;28;20029;-78
2022/07/15 03:22:42;;;;;;;14.55;3.55;;;14.70;99.90;;;;;;5050801;28;20029;-79
2022/07/15 03:25:08;;;;;;;8.55;3.75;;;14.80;99.90;;;;;;5052224;28;20480;-79
2022/07/15 03:27:34;;;;;;;11.30;3.53;;;15.30;99.90;;;;;;5050744;28;20025;-79
2022/07/15 03:30:00;;;;;;;16.52;4.03;;;15.10;99.90;;;;;;5050665;28;20107;-79
2022/07/15 03:32:26;;;;;;;16.55;4.40;;;14.80;99.90;;;;;;5052414;28;20033;-79
2022/07/15 03:34:52;;;;;;;12.77;3.58;;;14.70;99.90;;;;;;5054356;28;20028;-79
2022/07/15 03:37:23;;;;;;;14.50;3.92;;;14.60;99.90;;;;;;5054152;28;20088;-80
2022/07/15 03:39:49;;;;;;;13.65;3.85;;;14.70;99.90;;;;;;5054595;28;20044;-80
2022/07/15 03:42:15;;;;;;;10.40;3.67;;;14.70;99.90;;;;;;5054289;28;20032;-79
2022/07/15 03:44:43;;;;;;;14.45;4.30;;;14.70;99.90;;;;;;5054114;28;20021;-80
2022/07/15 03:47:09;;;;;;;11.23;3.90;;;14.90;99.90;;;;;;5053880;28;20496;-79
2022/07/15 03:49:35;;;;;;;17.30;3.97;;;15.00;99.90;;;;;;5053220;28;20421;-80
2022/07/15 03:52:01;;;;;;;13.93;4.57;;;15.10;99.90;;;;;;5053892;28;20023;-80
2022/07/15 03:54:27;;;;;;;9.50;3.83;;;15.00;99.90;;;;;;5054484;28;20119;-79
2022/07/15 03:56:53;;;;;;;14.40;3.92;;;14.90;99.90;;;;;;5055176;28;20029;-79
2022/07/15 03:59:20;;;;;;;11.57;4.57;;;15.00;99.90;;;;;;5055144;28;20048;-79
2022/07/15 04:01:48;;;;;;;13.63;4.28;;;15.10;99.90;;;;;;5054067;28;20067;-79
2022/07/15 04:04:15;;;;;;;14.48;3.80;;;15.00;99.90;;;;;;5053660;28;20424;-80
2022/07/15 04:06:40;;;;;;;13.63;4.18;;;14.90;99.90;;;;;;5055355;28;20025;-79
2022/07/15 04:09:07;;;;;;;12.98;4.28;;;14.90;99.90;;;;;;5053569;28;20082;-79
2022/07/15 04:11:34;;;;;;;13.10;3.78;;;14.90;99.90;;;;;;5053938;28;20063;-79
2022/07/15 04:14:00;;;;;;;15.70;4.95;;;15.00;99.90;;;;;;5053683;28;20389;-80
2022/07/15 04:16:25;;;;;;;10.10;3.75;;;15.20;99.90;;;;;;5054941;28;20041;-79
2022/07/15 04:18:53;;;;;;;14.35;4.50;;;15.20;99.90;;;;;;5053402;28;20095;-78
2022/07/15 04:21:21;;;;;;;13.93;4.20;;;15.30;99.90;;;;;;5053443;28;20500;-80
2022/07/15 04:23:47;;;;;;;12.25;3.88;;;15.40;99.90;;;;;;5053668;28;20460;-80
2022/07/15 04:26:13;;;;;;;16.95;5.25;;;15.40;99.90;;;;;;5054822;28;20056;-80
2022/07/15 04:28:41;;;;;;;9.55;4.40;;;15.50;99.90;;;;;;5053459;28;20051;-79
2022/07/15 04:31:07;;;;;;;13.80;4.10;;;15.60;99.90;;;;;;5053398;28;20032;-79
2022/07/15 04:33:50;;;;;;;10.43;3.63;;;15.50;99.90;;;;;;5052984;28;20029;-79
2022/07/15 04:36:16;;;;;;;18.90;4.30;;;15.30;99.90;;;;;;5053312;28;20039;-79
2022/07/15 04:38:43;;;;;;;9.63;3.88;;;15.40;99.90;;;;;;5053312;28;20013;-79
2022/07/15 04:41:08;;;;;;;14.63;4.03;;;15.40;99.90;;;;;;5053137;28;20031;-79
2022/07/15 04:43:34;;;;;;;11.73;4.25;;;15.30;99.90;;;;;;5052601;28;20021;-80
2022/07/15 04:46:00;;;;;;;13.15;4.43;;;15.50;99.90;;;;;;5036458;28;20465;-79
2022/07/15 04:51:13;;;;;;;11.13;4.03;;;15.30;99.90;;;;;;5053177;28;20036;-79
2022/07/15 04:53:40;;;;;;;11.27;3.85;;;15.70;99.90;;;;;;5052842;28;20025;-79
2022/07/15 04:56:06;;;;;;;9.52;3.75;;;15.50;99.90;;;;;;5053095;28;20036;-79
2022/07/15 04:58:32;;;;;;;12.25;4.03;;;15.40;99.90;;;;;;5053084;28;20017;-79
2022/07/15 05:01:03;;;;;;;9.95;4.05;;;15.30;99.90;;;;;;5053114;28;20024;-79
2022/07/15 05:03:28;;;;;;;10.00;3.65;;;15.50;99.90;;;;;;5052664;28;20029;-79
2022/07/15 05:05:55;;;;;;;11.85;4.00;;;15.50;99.90;;;;;;5054083;28;20025;-79
2022/07/15 05:08:29;;;;;;;8.32;3.83;;;15.80;99.90;;;;;;5052543;28;20041;-78
2022/07/15 05:10:56;;;;;;;14.02;4.15;;;16.10;99.90;;;;;;5052565;28;20021;-79
2022/07/15 05:13:22;;;;;;;12.38;4.70;;;15.70;99.90;;;;;;5052669;28;20039;-79
2022/07/15 05:15:49;;;;;;;12.75;4.00;;;15.60;99.90;;;;;;5052559;28;20021;-79
2022/07/15 05:18:20;;;;;;;9.63;3.83;;;15.80;99.90;;;;;;5052241;28;20123;-79
2022/07/15 05:20:45;;;;;;;13.85;4.40;;;15.70;99.90;;;;;;5052262;28;20124;-79
2022/07/15 05:23:16;;;;;;;11.88;3.83;;;15.80;99.90;;;;;;5053769;28;20020;-80
2022/07/15 05:25:46;;;;;;;15.07;4.47;;;16.00;99.90;;;;;;5052586;28;20036;-79
2022/07/15 05:28:12;;;;;;;10.57;4.07;;;15.80;99.90;;;;;;5052493;28;20017;-79
2022/07/15 05:30:40;;;;;;;13.70;4.15;;;15.70;99.90;;;;;;5052118;28;20424;-79
2022/07/15 05:33:09;;;;;;;11.88;4.13;;;16.00;99.90;;;;;;5052157;28;20430;-78
2022/07/15 05:35:35;;;;;;;13.18;4.22;;;16.30;99.90;;;;;;5052274;28;20036;-79
2022/07/15 05:38:02;;;;;;;14.73;5.22;;;16.50;99.90;;;;;;5052468;28;20040;-79
2022/07/15 05:40:31;;;;;;;16.02;4.93;;;16.60;99.90;;;;;;5044851;28;20096;-79
2022/07/15 05:42:56;;;;;;;18.75;4.10;;;16.60;99.90;;;;;;5052105;28;20520;-78
2022/07/15 05:45:23;;;;;;;14.77;4.57;;;16.70;99.90;;;;;;5051469;28;20436;-78
2022/07/15 05:47:57;;;;;;;15.10;4.95;;;16.70;99.90;;;;;;5051937;28;20052;-79
2022/07/15 05:50:26;;;;;;;15.05;5.03;;;16.90;99.90;;;;;;5051809;28;20029;-79
2022/07/15 05:52:56;;;;;;;14.23;5.15;;;16.90;99.90;;;;;;5052114;28;20128;-79
2022/07/15 05:55:23;;;;;;;11.88;4.30;;;17.00;99.90;;;;;;5051519;28;20155;-76
2022/07/15 05:57:49;;;;;;;9.57;4.28;;;17.10;99.90;;;;;;5051730;28;20037;-77
2022/07/15 06:00:16;;;;;;;12.60;4.65;;;17.20;99.90;;;;;;5051341;28;20027;-76
2022/07/15 06:02:45;;;;;;;13.65;4.63;;;17.20;99.90;;;;;;5052129;28;20032;-77
2022/07/15 06:05:19;;;;;;;17.75;4.35;;;17.20;99.90;;;;;;5051630;28;20496;-76
2022/07/15 06:07:49;;;;;;;14.52;3.85;;;17.50;99.90;;;;;;5051404;28;20029;-76
2022/07/15 06:10:17;;;;;;;16.63;4.43;;;17.80;99.90;;;;;;5035030;28;20033;-77
2022/07/15 06:12:44;;;;;;;13.63;3.75;;;17.90;99.90;;;;;;5051324;28;20112;-76
2022/07/15 06:15:10;;;;;;;13.27;3.67;;;18.00;99.90;;;;;;5051221;28;20116;-76
2022/07/15 06:17:36;;;;;;;8.82;2.67;;;18.10;99.90;;;;;;5052785;28;20036;-76
2022/07/15 06:20:04;;;;;;;8.40;2.30;;;17.30;99.90;;;;;;5051162;28;20029;-76
2022/07/15 06:22:29;;;;;;;11.57;2.67;;;17.00;99.90;;;;;;5051196;28;20052;-76
2022/07/15 06:24:55;;;;;;;10.10;2.03;;;17.00;99.90;;;;;;5052549;28;20068;-76
2022/07/15 06:27:21;;;;;;;9.05;2.17;;;17.00;99.90;;;;;;5052636;28;20021;-76
2022/07/15 06:29:51;;;;;;;6.13;1.70;;;17.00;99.90;;;;;;5052051;28;20061;-76
2022/07/15 06:32:20;;;;;;;6.13;1.33;;;17.10;99.90;;;;;;5052483;28;20107;-76
2022/07/15 06:34:46;;;;;;;15.98;2.20;;;17.00;99.90;;;;;;5052290;28;20025;-76
2022/07/15 06:37:11;;;;;;;9.57;1.42;;;17.10;99.90;;;;;;5051287;28;20538;-76
2022/07/15 06:39:37;;;;;;;5.35;1.52;;;17.00;99.90;;;;;;5051995;28;20033;-76
2022/07/15 06:42:04;;;;;;;8.23;1.92;;;17.00;99.90;;;;;;5051251;28;20508;-76
2022/07/15 06:44:30;;;;;;;11.63;1.27;;;17.20;99.90;;;;;;5050665;28;20029;-75
2022/07/15 06:46:56;;;;;;;5.00;1.08;;;17.40;99.90;;;;;;5051208;28;20365;-76
2022/07/15 06:49:24;;;;;;;12.07;1.50;;;17.50;99.90;;;;;;5051000;28;20089;-76
2022/07/15 06:51:52;;;;;;;6.22;1.20;;;17.60;99.90;;;;;;5052327;28;20052;-74
2022/07/15 06:54:19;;;;;;;7.72;1.30;;;17.50;99.90;;;;;;5051013;28;20032;-74
2022/07/15 06:56:47;;;;;;;6.22;1.33;;;17.50;99.90;;;;;;5050763;28;20086;-74
2022/07/15 06:59:13;;;;;;;4.63;1.45;;;17.50;99.90;;;;;;5050807;28;20492;-74
2022/07/15 07:01:39;;;;;;;6.57;1.27;;;17.40;99.90;;;;;;5052147;28;20051;-74
2022/07/15 07:04:05;;;;;;;8.68;1.30;;;17.40;99.90;;;;;;5052147;28;20107;-77
2022/07/15 07:06:30;;;;;;;14.98;1.70;;;17.20;99.90;;;;;;5051281;28;20020;-81
2022/07/15 07:08:56;;;;;;;12.40;1.65;;;17.40;99.90;;;;;;5056099;28;20446;-78
2022/07/15 07:11:22;;;;;;;6.25;0.90;;;17.40;99.90;;;;;;5054736;28;20029;-79
2022/07/15 07:13:50;;;;;;;8.30;0.93;;;17.50;99.90;;;;;;5056116;28;20028;-74
2022/07/15 07:16:17;;;;;;;6.72;1.35;;;17.50;99.90;;;;;;5056024;28;20389;-74
2022/07/15 07:18:45;;;;;;;12.57;1.50;;;17.60;99.90;;;;;;5056024;28;20823;-74
2022/07/15 07:21:12;;;;;;;9.73;1.30;;;18.00;99.90;;;;;;5055865;28;20381;-80
2022/07/15 07:23:39;;;;;;;5.15;0.98;;;18.30;99.90;;;;;;5054573;28;20112;-80
2022/07/15 07:26:07;;;;;;;6.00;0.95;;;18.60;99.90;;;;;;5055570;28;20562;-82
2022/07/15 07:28:33;;;;;;;6.80;1.10;;;18.80;99.90;;;;;;5054525;28;20537;-81
2022/07/15 07:30:59;;;;;;;10.98;1.30;;;18.60;99.90;;;;;;5055776;28;20112;-77
2022/07/15 07:33:25;;;;;;;10.13;1.48;;;18.40;99.90;;;;;;5055837;28;20489;-80
2022/07/15 07:35:51;;;;;;;6.63;1.17;;;18.30;99.90;;;;;;5055774;28;20396;-77
2022/07/15 07:38:19;;;;;;;7.20;1.63;;;18.30;99.90;;;;;;5055277;28;20033;-76
2022/07/15 07:40:48;;;;;;;11.20;2.05;;;18.30;99.90;;;;;;5055518;28;20021;-76
2022/07/15 07:43:18;;;;;;;6.80;1.88;;;18.30;99.90;;;;;;5055285;28;20029;-77
2022/07/15 07:45:45;;;;;;;9.68;2.38;;;18.40;99.90;;;;;;5055558;28;20025;-78
2022/07/15 07:48:11;;;;;;;5.88;1.33;;;18.70;99.90;;;;;;5055320;28;20021;-79
2022/07/15 07:50:38;;;;;;;8.05;1.50;;;18.80;99.90;;;;;;5050871;28;20493;-78
2022/07/15 07:53:04;;;;;;;4.93;1.30;;;18.70;99.90;;;;;;5047250;28;20025;-78
2022/07/15 07:55:30;;;;;;;13.82;1.55;;;19.10;99.90;;;;;;5054426;28;20108;-79
2022/07/15 07:57:57;;;;;;;8.77;2.00;;;19.20;99.90;;;;;;5063600;28;20517;-80
2022/07/15 08:00:26;;;;;;;8.95;1.60;;;19.70;99.90;;;;;;5056354;28;20040;-79
2022/07/15 08:02:54;;;;;;;5.30;1.73;;;20.10;99.90;;;;;;5055231;28;20017;-81
2022/07/15 08:05:20;;;;;;;9.02;1.70;;;20.20;99.90;;;;;;5055045;28;20029;-82
2022/07/15 08:07:46;;;;;;;5.38;1.42;;;20.10;99.90;;;;;;5054775;28;20049;-81
2022/07/15 08:10:13;;;;;;;6.72;1.77;;;19.90;99.90;;;;;;5054687;28;20049;-79
2022/07/15 08:12:39;;;;;;;4.55;1.50;;;20.20;99.90;;;;;;5054819;28;20021;-77
2022/07/15 08:15:07;;;;;;;11.65;1.45;;;19.90;99.90;;;;;;5055029;28;20025;-78
2022/07/15 08:17:34;;;;;;;11.55;1.90;;;19.70;99.90;;;;;;5054705;28;20059;-83
2022/07/15 08:19:59;;;;;;;6.22;1.92;;;20.00;99.90;;;;;;5053658;28;20033;-80
2022/07/15 08:22:25;;;;;;;6.63;1.88;;;20.10;99.90;;;;;;5053943;28;20499;-79
2022/07/15 08:24:51;;;;;;;7.45;1.42;;;20.20;99.90;;;;;;5053528;28;20111;-80
2022/07/15 08:27:18;;;;;;;11.90;1.27;;;20.00;99.90;;;;;;5053575;28;20517;-81
2022/07/15 08:29:44;;;;;;;5.22;1.52;;;20.20;99.50;;;;;;5053560;28;20033;-80
2022/07/15 08:32:09;;;;;;;8.05;1.27;;;19.90;99.70;;;;;;5054905;28;20381;-81
2022/07/15 08:34:35;;;;;;;7.03;1.42;;;20.50;99.70;;;;;;5054530;28;20021;-80
2022/07/15 08:37:01;;;;;;;5.30;1.30;;;20.30;99.80;;;;;;5054778;28;20043;-80
2022/07/15 08:39:27;;;;;;;6.47;1.77;;;20.20;99.50;;;;;;5052727;28;20118;-80
2022/07/15 08:41:53;;;;;;;6.40;1.90;;;19.70;99.90;;;;;;5054802;28;20025;-81
2022/07/15 08:44:19;;;;;;;4.35;1.50;;;20.00;99.90;;;;;;5052932;28;20025;-80
2022/07/15 08:46:47;;;;;;;11.07;2.05;;;20.20;99.90;;;;;;5053201;28;20457;-80
2022/07/15 08:49:15;;;;;;;6.85;1.52;;;20.50;99.60;;;;;;5053941;28;20071;-80
2022/07/15 08:51:46;;;;;;;10.32;1.65;;;20.60;98.90;;;;;;5054318;28;20021;-81
2022/07/15 08:54:14;;;;;;;6.53;1.60;;;20.60;99.50;;;;;;5052930;28;20035;-80
2022/07/15 08:56:42;;;;;;;8.35;1.48;;;20.60;99.20;;;;;;5054131;28;20044;-80
2022/07/15 08:59:08;;;;;;;3.85;1.02;;;20.70;98.00;;;;;;5054294;28;20027;-81
2022/07/15 09:01:42;;;;;;;9.27;1.33;;;20.70;98.10;;;;;;5054328;28;20021;-80
2022/07/15 09:04:08;;;;;;;5.43;1.40;;;21.00;97.50;;;;;;5052745;28;20461;-81
2022/07/15 09:06:39;;;;;;;3.65;0.75;;;21.50;96.80;;;;;;5052960;28;20473;-80
2022/07/15 09:09:28;;;;;;;14.13;1.60;;;21.00;95.70;;;;;;5052441;28;20428;-80
2022/07/15 09:12:00;;;;;;;4.03;0.88;;;20.50;96.20;;;;;;5054054;28;20017;-79
2022/07/15 09:14:29;;;;;;;;;;;20.80;96.30;;;;;;5054321;28;20024;-80
2022/07/15 09:17:19;;;;;;;4.25;1.13;;;21.10;96.80;;;;;;5052765;28;19913;-80
2022/07/15 09:20:11;;;;;;;4.22;1.38;;;21.60;96.30;;;;;;5052429;28;20033;-80
2022/07/15 09:22:50;;;;;;;3.65;0.73;;;21.90;94.40;;;;;;5053480;28;20512;-80
2022/07/15 09:25:16;;;;;;;2.13;0.85;;;21.70;94.40;;;;;;5053722;28;20037;-79
2022/07/15 09:27:44;;;;;;;1.83;0.88;;;21.80;94.10;;;;;;5052502;28;20462;-80
2022/07/15 09:36:02;;;;;;;7.20;1.15;;;22.40;93.80;;;;;;5053594;28;20025;-80
2022/07/15 09:38:40;;;;;;;9.18;0.90;;;23.00;92.90;;;;;;5051980;28;20033;-81
2022/07/15 09:41:08;;;;;;;2.15;0.70;;;22.90;93.50;;;;;;5053328;28;20033;-79
2022/07/15 09:43:55;;;;;;;6.47;0.80;;;23.00;94.00;;;;;;5053358;28;20021;-79
2022/07/15 09:46:24;;;;;;;1.70;0.98;;;22.80;94.40;;;;;;5053763;28;20437;-81
2022/07/15 09:48:52;;;;;;;6.47;1.02;;;23.40;93.80;;;;;;5053136;28;20037;-80
2022/07/15 09:51:19;;;;;;;3.47;0.95;;;23.30;93.10;;;;;;5051959;28;20036;-80
2022/07/15 09:53:45;;;;;;;3.17;1.02;;;23.90;93.30;;;;;;5052882;28;20033;-78
2022/07/15 09:56:14;;;;;;;4.57;1.02;;;23.60;92.70;;;;;;5053025;28;20060;-73
2022/07/15 09:58:42;;;;;;;7.35;1.45;;;23.80;94.30;;;;;;5053024;28;20377;-73
2022/07/15 10:01:10;;;;;;;7.10;1.02;;;24.30;92.00;;;;;;5053105;28;20080;-74
2022/07/15 10:03:37;;;;;;;5.30;1.35;;;24.00;92.40;;;;;;5053115;28;20036;-78
2022/07/15 10:06:03;;;;;;;3.35;0.70;;;23.40;93.00;;;;;;5060347;28;20504;-75
2022/07/15 10:08:31;;;;;;;4.60;1.00;;;23.10;93.80;;;;;;5052797;28;20028;-75
2022/07/15 10:10:57;;;;;;;5.25;0.98;;;23.90;94.00;;;;;;5051958;28;20021;-80
2022/07/15 10:13:44;;;;;;;5.78;1.05;;;23.90;92.30;;;;;;5061374;28;20397;-77
2022/07/15 10:16:30;;;;;;;6.25;1.00;;;23.20;93.30;;;;;;5040457;28;20065;-80
2022/07/15 10:19:01;;;;;;;4.63;1.05;;;23.60;93.10;;;;;;5052505;28;20064;-79
2022/07/15 10:21:50;;;;;;;2.53;0.77;;;24.10;92.70;;;;;;5052096;28;20052;-81
2022/07/15 10:24:49;;;;;;;6.28;1.00;;;24.50;90.90;;;;;;5052524;28;20032;-84
2022/07/15 10:27:33;;;;;;;6.15;1.05;;;25.10;91.30;;;;;;5054470;28;20045;-80
2022/07/15 10:30:06;;;;;;;7.85;1.40;;;25.20;90.20;;;;;;5048993;28;20055;-81
2022/07/15 10:33:03;;;;;;;2.50;1.08;;;24.20;91.60;;;;;;5046371;28;20025;-82
2022/07/15 10:35:45;;;;;;;4.40;1.50;;;24.80;91.20;;;;;;5046626;28;20051;-83
2022/07/15 10:38:29;;;;;;;4.07;1.35;;;24.50;91.10;;;;;;5052044;28;20083;-83
2022/07/15 10:41:02;;;;;;;5.85;2.25;;;25.20;90.50;;;;;;5050630;28;20039;-83
2022/07/15 10:43:41;;;;;;;10.18;2.17;;;25.40;90.50;;;;;;5051419;28;20040;-80
2022/07/15 10:46:28;;;;;;;5.57;1.10;;;25.50;90.40;;;;;;5051314;28;20111;-82
2022/07/15 10:48:59;;;;;;;4.20;1.20;;;25.10;90.40;;;;;;5035119;28;20045;-80
2022/07/15 10:51:37;;;;;;;7.20;1.20;;;23.60;91.50;;;;;;5047316;28;20036;-81
2022/07/15 10:54:04;;;;;;;5.68;1.45;;;22.70;92.60;;;;;;5052257;28;20040;-80
2022/07/15 10:56:36;;;;;;;5.40;1.75;;;23.20;92.10;;;;;;5052391;28;20079;-82
2022/07/15 10:59:23;;;;;;;6.50;1.65;;;24.00;92.30;;;;;;5052389;28;20025;-82
2022/07/15 11:02:09;;;;;;;8.63;1.63;;;24.60;90.80;;;;;;5051518;28;20029;-84
2022/07/15 11:04:36;;;;;;;6.88;1.10;;;23.90;91.00;;;;;;5038339;28;20087;-81
2022/07/15 11:07:02;;;;;;;6.07;1.45;;;23.50;90.80;;;;;;5050749;28;20025;-81
2022/07/15 11:09:55;;;;;;;5.75;1.52;;;23.90;91.10;;;;;;5051972;28;20474;-80
2022/07/15 11:12:43;;;;;;;4.82;1.10;;;24.10;91.50;;;;;;5050653;28;20041;-81
2022/07/15 11:15:16;;;;;;;8.27;1.13;;;23.90;91.10;;;;;;5051970;28;20028;-81
2022/07/15 11:17:47;;;;;;;5.63;1.30;;;23.40;91.90;;;;;;5051723;28;20083;-82
2022/07/15 11:20:21;;;;;;;8.50;1.17;;;24.00;91.30;;;;;;5051687;28;20552;-80
2022/07/15 11:22:49;;;;;;;2.75;1.02;;;23.50;90.30;;;;;;5050507;28;20072;-82
2022/07/15 11:25:34;;;;;;;6.35;1.08;;;23.70;90.90;;;;;;5050743;28;20104;-84
2022/07/15 11:28:12;;;;;;;4.68;0.98;;;23.50;91.80;;;;;;5037544;28;20024;-81
2022/07/15 11:30:53;;;;;;;5.28;1.40;;;24.10;91.20;;;;;;5051621;28;20056;-80
2022/07/15 11:33:25;;;;;;;5.97;1.20;;;23.60;91.50;;;;;;5049663;28;20028;-81
2022/07/15 11:35:53;;;;;;;4.80;1.05;;;23.80;91.30;;;;;;5050492;28;20054;-81
2022/07/15 11:38:23;;;;;;;4.97;1.50;;;23.40;91.90;;;;;;5051201;28;20025;-80
2022/07/15 11:46:29;;;;;;;7.25;1.33;;;23.00;92.50;;;;;;5051669;28;20033;-80
2022/07/15 11:48:56;;;;;;;3.67;1.10;;;23.00;92.70;;;;;;5051531;28;20104;-85
2022/07/15 11:51:30;;;;;;;6.72;1.05;;;22.80;92.50;;;;;;5051915;28;20022;-82
2022/07/15 11:53:58;;;;;;;25.95;1.63;;;23.00;92.90;;;;;;5053214;28;20078;-83
2022/07/15 11:56:24;;;;;;;6.18;1.13;;;23.00;92.80;;;;;;5054069;28;20037;-73
2022/07/15 11:58:53;;;;;;;2.72;1.05;;;22.90;92.90;;;;;;5054158;28;20033;-73
2022/07/15 12:01:22;;;;;;;3.88;1.00;;;23.60;92.80;;;;;;5055537;28;20021;-73
2022/07/15 12:03:50;;;;;;;9.23;1.40;;;23.60;92.20;;;;;;5055041;28;20389;-73
2022/07/15 12:06:20;;;;;;;4.15;1.45;;;23.70;93.30;;;;;;5055569;28;20477;-74
2022/07/15 12:08:48;;;;;;;5.22;1.88;;;24.50;92.20;;;;;;5055005;28;20035;-78
2022/07/15 12:11:20;;;;;;;4.20;1.45;;;24.10;92.00;;;;;;5055026;28;20032;-76
2022/07/15 12:13:50;;;;;;;4.40;1.20;;;23.90;91.40;;;;;;5051405;28;20025;-72
2022/07/15 12:16:20;;;;;;;4.22;1.08;;;23.60;91.50;;;;;;5055132;28;20037;-72
2022/07/15 12:18:47;;;;;;;6.13;1.33;;;24.40;91.10;;;;;;5054518;28;20145;-78
2022/07/15 12:21:13;;;;;;;4.45;1.23;;;24.90;91.70;;;;;;5053045;28;20416;-74
2022/07/15 12:23:39;;;;;;;7.82;1.58;;;25.40;90.80;;;;;;5053471;28;20072;-78
2022/07/15 12:26:09;;;;;;;4.38;1.23;;;26.50;90.90;;;;;;5054750;28;20060;-73
2022/07/15 12:28:36;;;;;;;4.50;1.30;;;27.40;90.30;;;;;;5055018;28;20116;-71
2022/07/15 12:31:03;;;;;;;5.38;1.15;;;26.10;89.20;;;;;;5054335;28;20025;-73
2022/07/15 12:33:35;;;;;;;5.22;1.50;;;26.00;89.40;;;;;;5052593;28;20028;-72
2022/07/15 12:36:19;;;;;;;5.20;1.83;;;25.20;90.00;;;;;;5054024;28;20032;-72
2022/07/15 12:39:00;;;;;;;5.55;1.42;;;24.80;90.50;;;;;;5054498;28;20029;-74
2022/07/15 12:41:26;;;;;;;;;;;24.50;90.70;;;;;;5055138;28;20017;-77
2022/07/15 12:43:59;;;;;;;2.60;1.13;;;25.20;89.30;;;;;;5053769;28;19908;-71
2022/07/15 12:46:52;;;;;;;4.35;1.25;;;25.30;89.10;;;;;;5035744;28;20397;-74
2022/07/15 12:49:37;;;;;;;1.67;0.80;;;25.50;89.50;;;;;;5053127;28;20044;-75
2022/07/15 12:52:25;;;;;;;9.75;1.45;;;25.60;89.90;;;;;;5053282;28;20567;-82
2022/07/15 12:54:54;;;;;;;4.25;1.70;;;26.30;89.60;;;;;;5053772;28;20032;-82
2022/07/15 12:57:21;;;;;;;13.20;1.55;;;26.70;90.10;;;;;;5047816;28;20033;-79
2022/07/15 12:59:54;;;;;;;3.90;1.15;;;26.80;89.10;;;;;;5048469;28;20031;-75
2022/07/15 13:02:21;;;;;;;6.00;1.42;;;27.20;89.80;;;;;;5054007;28;20543;-78
2022/07/15 13:04:48;;;;;;;2.75;1.08;;;27.30;87.60;;;;;;5053584;28;20031;-71
2022/07/15 13:07:16;;;;;;;4.75;1.40;;;26.60;86.80;;;;;;5054102;28;20037;-73
2022/07/15 13:09:42;;;;;;;3.95;1.30;;;26.40;87.20;;;;;;5052728;28;20025;-70